ZMUB/ULN METAR and TAF weather

Enter ICAO airport designator
Station Type Date Time Source
ZMUB METAR 2024/04/23 05:00 UTC NOAA

ZMUB 230500Z 27005MPS 9999 SCT033 SCT100 09/M01 Q1002 NOSIG RMK QFE645.7 50 MOP


Station Type Date Time Source
ZMUB Decoded METAR 2024/04/23 05:00 UTC NOAA

Ulan-Bator, Mongolia (ZMUB) 47-51N 106-46E
Apr 23, 2024 - 01:00 AM EDT / 2024.04.23 0500 UTC
Wind: from the W (270 degrees) at 11 MPH (10 KT):0
Visibility: greater than 7 mile(s):0
Sky conditions: partly cloudy
Temperature: 48 F (9 C)
Dew Point: 30 F (-1 C)
Relative Humidity: 49%
Pressure (altimeter): 29.59 in. Hg (1002 hPa)
ob: ZMUB 230500Z 27005MPS 9999 SCT033 SCT100 09/M01 Q1002 NOSIG RMK QFE645.7 50 MOP
cycle: 5

Station Type Date Time Source
ZMUB TAF 2024/04/23 06:48 UTC NOAA